createdAt,value
2019-03-30T00:00:04.230Z,67.00
2019-03-30T00:01:04.227Z,68.70
2019-03-30T00:02:04.206Z,64.50
2019-03-30T00:03:04.214Z,55.80
2019-03-30T00:04:04.185Z,54.90
2019-03-30T00:05:04.179Z,60.60
2019-03-30T00:06:04.162Z,55.80
2019-03-30T00:07:04.158Z,54.50
2019-03-30T00:08:04.156Z,56.90
2019-03-30T00:09:04.134Z,57.50
2019-03-30T00:10:04.117Z,54.10
2019-03-30T00:11:04.114Z,50.90
2019-03-30T00:12:04.097Z,49.30
2019-03-30T00:13:04.103Z,49.30
2019-03-30T00:14:04.073Z,54.10
2019-03-30T00:15:04.069Z,61.30
2019-03-30T00:16:04.053Z,49.90
2019-03-30T00:17:04.051Z,50.40
2019-03-30T00:18:04.041Z,59.90
2019-03-30T00:19:04.029Z,67.70
2019-03-30T00:20:04.007Z,54.10
2019-03-30T00:21:04.000Z,59.00
2019-03-30T00:22:03.990Z,76.60
2019-03-30T00:23:03.999Z,57.40
2019-03-30T00:24:03.963Z,52.30
2019-03-30T00:25:03.967Z,64.70
2019-03-30T00:26:03.942Z,50.30
2019-03-30T00:27:03.933Z,59.20
2019-03-30T00:28:03.934Z,60.00
2019-03-30T00:29:03.912Z,49.50
2019-03-30T00:30:03.897Z,62.30
2019-03-30T00:31:03.889Z,65.40
2019-03-30T00:32:03.880Z,65.40
2019-03-30T00:33:03.905Z,69.60
2019-03-30T00:34:03.934Z,63.20
2019-03-30T00:35:03.845Z,55.30
2019-03-30T00:36:03.840Z,60.80
2019-03-30T00:37:03.823Z,70.70
2019-03-30T00:38:03.822Z,78.80
2019-03-30T00:39:03.802Z,65.10
2019-03-30T00:40:03.789Z,67.20
2019-03-30T00:41:03.784Z,71.40
2019-03-30T00:42:03.764Z,61.30
2019-03-30T00:43:03.771Z,66.60
2019-03-30T00:44:03.756Z,60.50
2019-03-30T00:45:03.735Z,61.20
2019-03-30T00:46:03.724Z,56.50
2019-03-30T00:47:03.720Z,63.20
2019-03-30T00:48:03.714Z,63.80
2019-03-30T00:49:03.691Z,67.40
2019-03-30T00:50:03.676Z,67.10
2019-03-30T00:51:03.672Z,56.40
2019-03-30T00:52:03.655Z,76.20
2019-03-30T00:53:03.683Z,55.50
2019-03-30T00:54:03.632Z,71.70
2019-03-30T00:55:03.625Z,62.40
2019-03-30T00:56:03.610Z,57.10
2019-03-30T00:57:03.606Z,52.30
2019-03-30T00:58:03.590Z,68.80
2019-03-30T00:59:03.595Z,59.50
2019-03-30T01:00:03.565Z,65.00
2019-03-30T01:01:03.561Z,65.00
2019-03-30T01:02:03.544Z,72.60
2019-03-30T01:03:03.538Z,67.10
2019-03-30T01:04:03.535Z,51.40
2019-03-30T01:05:03.522Z,46.30
2019-03-30T01:06:03.499Z,61.30
2019-03-30T01:07:03.494Z,61.20
2019-03-30T01:08:03.478Z,64.50
2019-03-30T01:09:03.490Z,62.50
2019-03-30T01:10:03.457Z,57.80
2019-03-30T01:11:03.451Z,62.90
2019-03-30T01:12:03.434Z,62.10
2019-03-30T01:13:03.426Z,58.90
2019-03-30T01:14:03.426Z,50.70
2019-03-30T01:15:03.406Z,49.90
2019-03-30T01:16:03.393Z,50.40
2019-03-30T01:17:03.384Z,58.40
2019-03-30T01:18:03.370Z,59.70
2019-03-30T01:19:03.373Z,53.40
2019-03-30T01:20:03.843Z,54.10
2019-03-30T01:21:03.338Z,61.10
2019-03-30T01:22:03.332Z,54.90
2019-03-30T01:23:03.316Z,54.10
2019-03-30T01:24:03.315Z,51.80
2019-03-30T01:25:03.294Z,47.10
2019-03-30T01:26:03.279Z,53.40
2019-03-30T01:27:03.282Z,51.90
2019-03-30T01:28:03.258Z,45.40
2019-03-30T01:29:03.262Z,55.10
2019-03-30T01:30:03.235Z,59.70
2019-03-30T01:31:03.227Z,78.30
2019-03-30T01:32:03.214Z,61.80
2019-03-30T01:33:03.206Z,62.50
2019-03-30T01:34:03.208Z,62.50
2019-03-30T01:35:03.206Z,52.50
2019-03-30T01:36:03.169Z,48.20
2019-03-30T01:37:03.162Z,60.40
2019-03-30T01:38:03.148Z,69.60
2019-03-30T01:39:03.155Z,60.20
2019-03-30T01:40:03.126Z,57.20
2019-03-30T01:41:03.118Z,69.40
2019-03-30T01:42:03.103Z,56.80
2019-03-30T01:43:03.099Z,56.30
2019-03-30T01:44:03.093Z,55.10
2019-03-30T01:45:03.082Z,71.10
2019-03-30T01:46:03.059Z,82.00
2019-03-30T01:47:03.052Z,67.50
2019-03-30T01:48:03.037Z,65.30
2019-03-30T01:49:03.049Z,76.00
2019-03-30T01:50:16.178Z,71.00
2019-03-30T01:51:04.002Z,63.70
2019-03-30T01:52:02.999Z,62.80
2019-03-30T01:53:02.982Z,66.50
2019-03-30T01:54:02.994Z,69.90
2019-03-30T01:55:02.961Z,67.70
2019-03-30T01:56:02.953Z,88.40
2019-03-30T01:57:02.942Z,75.80
2019-03-30T01:58:02.931Z,87.10
2019-03-30T01:59:02.929Z,65.20
2019-03-30T02:00:02.910Z,84.60
2019-03-30T02:01:02.895Z,76.30
2019-03-30T02:02:02.893Z,70.00
2019-03-30T02:03:02.872Z,61.90
2019-03-30T02:04:02.884Z,58.80
2019-03-30T02:05:02.851Z,74.70
2019-03-30T02:06:02.851Z,59.70
2019-03-30T02:07:02.831Z,87.40
2019-03-30T02:08:02.827Z,67.10
2019-03-30T02:09:02.823Z,64.20
2019-03-30T02:10:02.799Z,57.00
2019-03-30T02:11:02.786Z,63.30
2019-03-30T02:12:02.779Z,63.20
2019-03-30T02:13:02.767Z,66.90
2019-03-30T02:14:02.770Z,66.60
2019-03-30T02:15:02.740Z,71.30
2019-03-30T02:16:02.739Z,60.50
2019-03-30T02:17:02.718Z,64.90
2019-03-30T02:18:02.712Z,63.40
2019-03-30T02:19:02.709Z,59.00
2019-03-30T02:20:02.692Z,64.40
2019-03-30T02:21:02.674Z,81.20
2019-03-30T02:22:02.668Z,69.10
2019-03-30T02:23:02.654Z,64.70
2019-03-30T02:24:02.661Z,67.70
2019-03-30T02:25:02.634Z,70.30
2019-03-30T02:26:02.623Z,78.10
2019-03-30T02:27:02.608Z,70.10
2019-03-30T02:28:02.603Z,70.30
2019-03-30T02:29:02.601Z,65.70
2019-03-30T02:30:02.585Z,73.70
2019-03-30T02:31:02.571Z,81.80
2019-03-30T02:32:02.559Z,66.50
2019-03-30T02:33:02.547Z,65.50
2019-03-30T02:34:02.551Z,50.70
2019-03-30T02:35:02.522Z,70.90
2019-03-30T02:36:02.518Z,63.60
2019-03-30T02:37:02.503Z,78.60
2019-03-30T02:38:02.493Z,84.20
2019-03-30T02:39:02.492Z,68.60
2019-03-30T02:40:02.474Z,78.00
2019-03-30T02:41:02.473Z,60.80
2019-03-30T02:42:02.457Z,68.70
2019-03-30T02:43:02.435Z,64.70
2019-03-30T02:44:02.428Z,62.80
2019-03-30T02:45:02.432Z,73.50
2019-03-30T02:46:02.411Z,61.20
2019-03-30T02:47:02.391Z,54.80
2019-03-30T02:48:02.388Z,67.30
2019-03-30T02:49:02.370Z,65.00
2019-03-30T02:50:02.377Z,70.90
2019-03-30T02:51:02.348Z,55.80
2019-03-30T02:52:02.422Z,64.20
2019-03-30T02:53:02.326Z,61.90
2019-03-30T02:54:02.324Z,68.70
2019-03-30T02:55:02.323Z,79.70
2019-03-30T02:56:02.297Z,60.30
2019-03-30T02:57:02.282Z,57.00
2019-03-30T02:58:02.279Z,79.30
2019-03-30T02:59:02.262Z,78.80
2019-03-30T03:00:02.272Z,68.60
2019-03-30T03:01:02.237Z,72.00
2019-03-30T03:02:02.235Z,81.80
2019-03-30T03:03:02.216Z,62.50
2019-03-30T03:04:02.214Z,70.30
2019-03-30T03:05:02.210Z,74.90
2019-03-30T03:06:02.199Z,58.80
2019-03-30T03:07:02.186Z,77.60
2019-03-30T03:08:02.169Z,74.30
2019-03-30T03:09:02.154Z,67.20
2019-03-30T03:10:02.165Z,80.80
2019-03-30T03:11:02.131Z,81.70
2019-03-30T03:12:02.125Z,80.50
2019-03-30T03:13:02.115Z,92.60
2019-03-30T03:14:02.109Z,67.40
2019-03-30T03:15:02.100Z,75.30
2019-03-30T03:16:02.089Z,68.00
2019-03-30T03:17:02.080Z,63.70
2019-03-30T03:18:02.060Z,74.80
2019-03-30T03:19:02.045Z,74.50
2019-03-30T03:20:02.052Z,72.90
2019-03-30T03:21:08.066Z,71.60
2019-03-30T03:22:03.022Z,78.00
2019-03-30T03:23:02.010Z,67.00
2019-03-30T03:24:01.993Z,75.20
2019-03-30T03:25:02.010Z,95.60
2019-03-30T03:26:01.975Z,78.80
2019-03-30T03:27:01.961Z,75.40
2019-03-30T03:28:01.954Z,118.60
2019-03-30T03:29:01.944Z,81.10
2019-03-30T03:30:01.967Z,76.20
2019-03-30T03:31:01.930Z,75.40
2019-03-30T03:32:01.926Z,81.10
2019-03-30T03:33:01.895Z,72.20
2019-03-30T03:34:02.131Z,69.50
2019-03-30T03:35:02.086Z,67.70
2019-03-30T03:36:01.865Z,91.90
2019-03-30T03:37:01.847Z,61.30
2019-03-30T03:38:01.841Z,61.40
2019-03-30T03:39:01.828Z,70.10
2019-03-30T03:40:01.821Z,79.40
2019-03-30T03:41:01.823Z,73.40
2019-03-30T03:42:01.800Z,73.70
2019-03-30T03:43:01.783Z,58.30
2019-03-30T03:44:01.775Z,65.20
2019-03-30T03:45:01.785Z,56.40
2019-03-30T03:46:01.790Z,61.90
2019-03-30T03:47:01.751Z,51.80
2019-03-30T03:48:01.740Z,46.30
2019-03-30T03:49:01.721Z,65.20
2019-03-30T03:50:01.726Z,53.30
2019-03-30T03:51:01.708Z,59.90
2019-03-30T03:52:01.741Z,57.10
2019-03-30T03:53:01.673Z,57.60
2019-03-30T03:54:01.669Z,58.40
2019-03-30T03:55:01.658Z,57.30
2019-03-30T03:56:01.695Z,79.40
2019-03-30T03:57:01.639Z,66.60
2019-03-30T03:58:01.634Z,69.20
2019-03-30T03:59:01.609Z,61.40
2019-03-30T04:00:01.602Z,62.40
2019-03-30T04:01:01.602Z,63.00
2019-03-30T04:02:01.581Z,57.50
2019-03-30T04:03:01.565Z,43.10
2019-03-30T04:04:01.563Z,53.00
2019-03-30T04:05:01.549Z,56.40
2019-03-30T04:06:01.551Z,46.70
2019-03-30T04:07:01.522Z,66.40
2019-03-30T04:08:01.516Z,43.90
2019-03-30T04:09:01.505Z,51.80
2019-03-30T04:10:01.530Z,48.80
2019-03-30T04:11:01.491Z,50.60
2019-03-30T04:12:01.472Z,46.00
2019-03-30T04:13:01.458Z,52.60
2019-03-30T04:14:01.454Z,126.40
2019-03-30T04:15:01.437Z,210.60
2019-03-30T04:16:01.451Z,92.70
2019-03-30T04:17:01.416Z,57.70
2019-03-30T04:18:01.408Z,54.70
2019-03-30T04:19:01.410Z,49.70
2019-03-30T04:20:01.386Z,44.80
2019-03-30T04:21:01.382Z,42.10
2019-03-30T04:22:01.366Z,44.40
2019-03-30T04:23:01.351Z,45.20
2019-03-30T04:24:01.349Z,42.60
2019-03-30T04:25:01.331Z,51.20
2019-03-30T04:26:01.337Z,64.00
2019-03-30T04:27:01.314Z,68.50
2019-03-30T04:28:01.302Z,64.30
2019-03-30T04:29:01.310Z,57.30
2019-03-30T04:30:01.280Z,54.30
2019-03-30T04:31:01.279Z,53.60
2019-03-30T04:32:01.265Z,62.60
2019-03-30T04:33:01.242Z,46.20
2019-03-30T04:34:01.248Z,63.90
2019-03-30T04:35:01.220Z,61.70
2019-03-30T04:36:01.231Z,53.80
2019-03-30T04:37:01.198Z,40.40
2019-03-30T04:38:01.191Z,46.60
2019-03-30T04:39:01.177Z,57.20
2019-03-30T04:40:01.181Z,43.30
2019-03-30T04:41:01.168Z,50.10
2019-03-30T04:42:01.150Z,52.00
2019-03-30T04:43:01.134Z,62.00
2019-03-30T04:44:01.131Z,46.40
2019-03-30T04:45:01.114Z,55.30
2019-03-30T04:46:01.121Z,53.40
2019-03-30T04:47:01.089Z,54.70
2019-03-30T04:48:01.088Z,58.80
2019-03-30T04:49:01.067Z,68.30
2019-03-30T04:50:01.067Z,72.30
2019-03-30T04:51:01.058Z,65.50
2019-03-30T04:52:01.041Z,74.90
2019-03-30T04:53:01.025Z,68.40
2019-03-30T04:54:01.027Z,58.10
2019-03-30T04:55:01.007Z,68.40
2019-03-30T04:56:01.012Z,77.00
2019-03-30T04:57:00.982Z,62.30
2019-03-30T04:58:00.981Z,55.40
2019-03-30T04:59:00.960Z,55.80
2019-03-30T05:00:00.957Z,78.80
2019-03-30T05:01:00.979Z,59.10
2019-03-30T05:02:00.938Z,52.90
2019-03-30T05:03:00.921Z,67.40
2019-03-30T05:04:00.914Z,56.70
2019-03-30T05:05:00.900Z,40.80
2019-03-30T05:06:00.889Z,46.70
2019-03-30T05:07:00.893Z,46.30
2019-03-30T05:08:00.868Z,59.10
2019-03-30T05:09:00.859Z,56.10
2019-03-30T05:10:00.853Z,46.30
2019-03-30T05:11:00.832Z,69.20
2019-03-30T05:12:00.846Z,47.90
2019-03-30T05:13:00.815Z,59.30
2019-03-30T05:14:00.803Z,56.60
2019-03-30T05:15:00.788Z,48.90
2019-03-30T05:16:00.782Z,51.40
2019-03-30T05:17:00.780Z,61.20
2019-03-30T05:18:00.761Z,53.60
2019-03-30T05:19:00.753Z,56.30
2019-03-30T05:20:00.744Z,60.30
2019-03-30T05:21:00.724Z,58.50
2019-03-30T05:22:11.458Z,55.50
2019-03-30T05:23:01.701Z,54.00
2019-03-30T05:24:00.697Z,49.60
2019-03-30T05:25:00.697Z,56.90
2019-03-30T05:26:00.673Z,52.60
2019-03-30T05:27:00.672Z,45.50
2019-03-30T05:28:00.652Z,51.50
2019-03-30T05:29:00.637Z,39.60
2019-03-30T05:30:01.642Z,45.90
2019-03-30T05:31:00.627Z,54.40
2019-03-30T05:32:00.630Z,51.70
2019-03-30T05:33:06.123Z,51.20
2019-03-30T05:34:01.596Z,47.50
2019-03-30T05:35:00.572Z,47.50
2019-03-30T05:36:00.571Z,59.30
2019-03-30T05:37:00.565Z,55.50
2019-03-30T05:38:01.552Z,54.60
2019-03-30T05:39:00.528Z,63.20
2019-03-30T05:40:00.521Z,60.00
2019-03-30T05:41:00.586Z,55.00
2019-03-30T05:42:00.516Z,58.80
2019-03-30T05:43:00.486Z,44.70
2019-03-30T05:44:00.477Z,29.30
2019-03-30T05:45:00.491Z,32.80
2019-03-30T05:46:00.456Z,24.60
2019-03-30T05:47:00.460Z,15.80
2019-03-30T05:48:00.436Z,19.10
2019-03-30T05:49:00.419Z,17.90
2019-03-30T05:50:00.512Z,13.30
2019-03-30T05:51:00.396Z,16.10
2019-03-30T05:52:00.409Z,14.30
2019-03-30T05:53:00.409Z,12.80
2019-03-30T05:54:00.374Z,11.60
2019-03-30T05:55:00.489Z,11.20
2019-03-30T05:56:00.346Z,10.80
2019-03-30T05:57:00.347Z,9.50
2019-03-30T05:58:00.324Z,11.40
2019-03-30T05:59:00.309Z,10.40
2019-03-30T06:00:00.326Z,10.80
2019-03-30T06:01:00.288Z,9.40
2019-03-30T06:02:00.295Z,9.70
2019-03-30T06:03:00.266Z,11.20
2019-03-30T06:04:00.258Z,9.30
2019-03-30T06:05:03.082Z,8.20
2019-03-30T06:06:00.238Z,11.60
2019-03-30T06:07:00.234Z,10.20
2019-03-30T06:08:00.214Z,8.80
2019-03-30T06:09:00.202Z,7.80
2019-03-30T06:10:00.444Z,11.30
2019-03-30T06:11:00.184Z,9.80
2019-03-30T06:12:00.187Z,9.30
2019-03-30T06:13:00.154Z,13.30
2019-03-30T06:14:00.148Z,9.50
2019-03-30T06:15:00.324Z,10.50
2019-03-30T06:16:00.130Z,11.00
2019-03-30T06:17:00.123Z,9.20
2019-03-30T06:18:00.104Z,11.00
2019-03-30T06:19:00.094Z,10.60
2019-03-30T06:20:00.113Z,9.40
2019-03-30T06:21:00.070Z,9.30
2019-03-30T06:22:00.073Z,10.00
2019-03-30T06:23:00.045Z,9.60
2019-03-30T06:24:00.040Z,10.00
2019-03-30T06:25:00.021Z,9.20
2019-03-30T06:26:00.015Z,8.50
2019-03-30T06:27:00.030Z,8.30
2019-03-30T06:27:59.991Z,12.00
2019-03-30T06:28:59.977Z,8.50
2019-03-30T06:29:59.971Z,8.60
2019-03-30T06:30:59.956Z,11.10
2019-03-30T06:31:59.951Z,10.60
2019-03-30T06:32:59.954Z,7.30
2019-03-30T06:33:59.945Z,8.80
2019-03-30T06:34:59.911Z,9.00
2019-03-30T06:35:59.905Z,7.20
2019-03-30T06:36:59.894Z,8.40
2019-03-30T06:37:59.901Z,9.60
2019-03-30T06:38:59.869Z,8.40
2019-03-30T06:39:59.864Z,9.20
2019-03-30T06:40:59.842Z,7.80
2019-03-30T06:41:59.837Z,7.50
2019-03-30T06:42:59.845Z,12.80
2019-03-30T06:43:59.824Z,7.60
2019-03-30T06:44:59.802Z,7.50
2019-03-30T06:45:59.795Z,7.30
2019-03-30T06:46:59.777Z,5.90
2019-03-30T06:47:59.784Z,8.50
2019-03-30T06:48:59.766Z,7.40
2019-03-30T06:49:59.752Z,9.20
2019-03-30T06:50:59.739Z,10.10
2019-03-30T06:51:59.752Z,9.80
2019-03-30T06:52:59.729Z,8.20
2019-03-30T06:53:59.706Z,7.60
2019-03-30T06:54:59.697Z,7.40
2019-03-30T06:55:59.684Z,9.50
2019-03-30T06:56:59.676Z,6.60
2019-03-30T06:57:59.730Z,8.50
2019-03-30T06:58:59.646Z,6.50
2019-03-30T06:59:59.639Z,7.50
2019-03-30T07:00:59.698Z,8.30
2019-03-30T07:01:59.628Z,8.50
2019-03-30T07:02:59.613Z,8.10
2019-03-30T07:03:59.597Z,8.00
2019-03-30T07:04:59.576Z,9.00
2019-03-30T07:05:59.574Z,7.30
2019-03-30T07:06:59.553Z,7.40
2019-03-30T07:07:59.561Z,6.30
2019-03-30T07:08:59.531Z,9.00
2019-03-30T07:09:59.523Z,5.90
2019-03-30T07:10:59.512Z,10.00
2019-03-30T07:11:59.511Z,5.00
2019-03-30T07:12:59.504Z,6.60
2019-03-30T07:13:59.486Z,6.40
2019-03-30T07:14:59.464Z,6.60
2019-03-30T07:15:59.456Z,5.60
2019-03-30T07:17:01.791Z,7.30
2019-03-30T07:17:59.456Z,5.00
2019-03-30T07:18:59.417Z,8.20
2019-03-30T07:19:59.411Z,6.00
2019-03-30T07:20:59.395Z,7.60
2019-03-30T07:21:59.390Z,5.50
2019-03-30T07:23:11.244Z,5.40
2019-03-30T07:24:00.361Z,5.30
2019-03-30T07:24:59.356Z,8.00
2019-03-30T07:25:59.339Z,10.00
2019-03-30T07:26:59.331Z,6.10
2019-03-30T07:27:59.333Z,8.10
2019-03-30T07:28:59.313Z,5.70
2019-03-30T07:29:59.297Z,9.60
2019-03-30T07:30:59.292Z,5.90
2019-03-30T07:31:59.276Z,5.70
2019-03-30T07:32:59.284Z,6.00
2019-03-30T07:33:59.250Z,5.20
2019-03-30T07:34:59.245Z,6.10
2019-03-30T07:35:59.229Z,6.10
2019-03-30T07:36:59.221Z,4.80
2019-03-30T07:37:59.220Z,5.20
2019-03-30T07:38:59.201Z,7.00
2019-03-30T07:39:59.183Z,7.30
2019-03-30T07:40:59.182Z,4.90
2019-03-30T07:41:59.173Z,4.40
2019-03-30T07:42:59.178Z,6.30
2019-03-30T07:43:59.140Z,5.70
2019-03-30T07:44:59.133Z,4.90
2019-03-30T07:45:59.122Z,5.50
2019-03-30T07:46:59.113Z,4.20
2019-03-30T07:47:59.118Z,4.20
2019-03-30T07:48:59.090Z,7.40
2019-03-30T07:49:59.073Z,5.80
2019-03-30T07:50:59.071Z,4.70
2019-03-30T07:51:59.051Z,4.50
2019-03-30T07:52:59.072Z,4.30
2019-03-30T07:53:59.028Z,4.20
2019-03-30T07:54:59.022Z,5.20
2019-03-30T07:56:08.425Z,5.40
2019-03-30T07:57:06.147Z,4.10
2019-03-30T07:58:00.063Z,6.10
2019-03-30T07:58:58.993Z,5.90
2019-03-30T07:59:58.962Z,4.60
2019-03-30T08:00:58.956Z,4.10
2019-03-30T08:01:58.941Z,5.90
2019-03-30T08:02:58.935Z,5.60
2019-03-30T08:03:58.937Z,5.50
2019-03-30T08:04:58.937Z,4.40
2019-03-30T08:05:58.895Z,4.10
2019-03-30T08:06:58.895Z,4.60
2019-03-30T08:07:58.878Z,5.70
2019-03-30T08:08:58.881Z,5.00
2019-03-30T08:09:58.853Z,5.80
2019-03-30T08:10:58.849Z,5.10
2019-03-30T08:11:58.827Z,4.10
2019-03-30T08:12:58.823Z,3.80
2019-03-30T08:13:58.830Z,5.10
2019-03-30T08:14:58.801Z,4.70
2019-03-30T08:15:58.784Z,4.70
2019-03-30T08:16:58.776Z,6.80
2019-03-30T08:17:58.763Z,5.80
2019-03-30T08:18:58.770Z,7.10
2019-03-30T08:19:58.743Z,5.30
2019-03-30T08:20:58.740Z,6.40
2019-03-30T08:21:58.719Z,6.60
2019-03-30T08:22:58.711Z,6.10
2019-03-30T08:23:58.711Z,4.80
2019-03-30T08:24:58.689Z,5.70
2019-03-30T08:25:58.676Z,5.00
2019-03-30T08:26:58.669Z,4.80
2019-03-30T08:27:58.660Z,4.70
2019-03-30T08:28:58.663Z,6.30
2019-03-30T08:29:58.628Z,5.60
2019-03-30T08:30:58.621Z,5.00
2019-03-30T08:31:58.605Z,7.40
2019-03-30T08:32:58.602Z,6.30
2019-03-30T08:33:58.598Z,5.30
2019-03-30T08:34:58.576Z,4.80
2019-03-30T08:35:58.560Z,6.30
2019-03-30T08:36:59.485Z,4.30
2019-03-30T08:37:58.536Z,6.60
2019-03-30T08:38:58.544Z,6.90
2019-03-30T08:39:58.514Z,8.10
2019-03-30T08:40:58.510Z,4.50
2019-03-30T08:41:58.493Z,6.60
2019-03-30T08:42:58.487Z,5.60
2019-03-30T08:43:58.494Z,6.90
2019-03-30T08:44:58.471Z,6.10
2019-03-30T08:45:58.453Z,5.00
2019-03-30T08:46:58.443Z,6.00
2019-03-30T08:47:58.428Z,6.60
2019-03-30T08:48:58.436Z,5.30
2019-03-30T08:49:58.409Z,4.20
2019-03-30T08:50:58.405Z,6.80
2019-03-30T08:51:58.382Z,4.50
2019-03-30T08:52:58.381Z,5.40
2019-03-30T08:53:58.376Z,6.00
2019-03-30T08:54:58.357Z,6.70
2019-03-30T08:55:58.341Z,5.10
2019-03-30T08:56:58.361Z,5.50
2019-03-30T08:57:58.323Z,5.20
2019-03-30T08:58:58.328Z,4.80
2019-03-30T08:59:58.298Z,5.20
2019-03-30T09:00:58.291Z,6.70
2019-03-30T09:01:58.278Z,7.10
2019-03-30T09:02:58.276Z,5.50
2019-03-30T09:03:58.266Z,4.70
2019-03-30T09:04:58.248Z,7.50
2019-03-30T09:05:58.236Z,9.10
2019-03-30T09:06:58.225Z,5.90
2019-03-30T09:07:58.211Z,6.20
2019-03-30T09:08:58.242Z,8.30
2019-03-30T09:09:58.189Z,7.00
2019-03-30T09:10:58.181Z,8.30
2019-03-30T09:11:58.177Z,5.00
2019-03-30T09:12:58.162Z,6.20
2019-03-30T09:13:58.159Z,4.90
2019-03-30T09:14:58.137Z,5.90
2019-03-30T09:15:58.124Z,7.30
2019-03-30T09:16:58.114Z,5.50
2019-03-30T09:17:58.099Z,7.70
2019-03-30T09:18:58.105Z,8.20
2019-03-30T09:19:58.078Z,8.30
2019-03-30T09:20:58.069Z,8.10
2019-03-30T09:21:58.072Z,5.30
2019-03-30T09:22:58.048Z,8.50
2019-03-30T09:24:08.790Z,4.70
2019-03-30T09:24:59.021Z,5.00
2019-03-30T09:25:58.012Z,4.90
2019-03-30T09:26:58.003Z,4.40
2019-03-30T09:27:57.991Z,5.20
2019-03-30T09:28:57.992Z,5.70
2019-03-30T09:29:57.971Z,7.80
2019-03-30T09:30:57.973Z,7.60
2019-03-30T09:31:57.950Z,7.80
2019-03-30T09:32:57.936Z,6.10
2019-03-30T09:33:57.945Z,4.80
2019-03-30T09:34:57.912Z,5.90
2019-03-30T09:35:57.916Z,6.20
2019-03-30T09:36:57.895Z,4.80
2019-03-30T09:37:57.890Z,7.80
2019-03-30T09:38:57.880Z,9.40
2019-03-30T09:39:57.860Z,6.60
2019-03-30T09:40:57.850Z,7.10
2019-03-30T09:41:57.862Z,7.30
2019-03-30T09:42:57.821Z,5.00
2019-03-30T09:43:57.830Z,8.20
2019-03-30T09:44:57.803Z,5.80
2019-03-30T09:45:57.805Z,6.10
2019-03-30T09:46:57.784Z,5.80
2019-03-30T09:47:57.782Z,6.20
2019-03-30T09:48:57.784Z,6.30
2019-03-30T09:49:57.769Z,6.20
2019-03-30T09:50:57.735Z,5.50
2019-03-30T09:51:57.730Z,7.80
2019-03-30T09:52:57.737Z,6.80
2019-03-30T09:53:57.723Z,7.20
2019-03-30T09:54:57.693Z,12.20
2019-03-30T09:55:57.690Z,9.40
2019-03-30T09:56:57.674Z,6.60
2019-03-30T09:57:57.692Z,5.60
2019-03-30T09:58:57.662Z,7.80
2019-03-30T09:59:57.685Z,5.30
2019-03-30T10:00:57.625Z,6.30
2019-03-30T10:01:57.622Z,6.20
2019-03-30T10:02:57.608Z,6.30
2019-03-30T10:03:57.627Z,6.80
2019-03-30T10:04:57.583Z,5.30
2019-03-30T10:05:57.589Z,8.10
2019-03-30T10:06:57.562Z,6.10
2019-03-30T10:07:57.560Z,6.50
2019-03-30T10:08:57.559Z,8.50
2019-03-30T10:09:57.538Z,9.50
2019-03-30T10:10:57.528Z,7.90
2019-03-30T10:11:57.527Z,7.60
2019-03-30T10:12:57.496Z,5.80
2019-03-30T10:13:57.514Z,9.10
2019-03-30T10:14:57.478Z,6.30
2019-03-30T10:15:57.471Z,8.10
2019-03-30T10:16:57.521Z,10.10
2019-03-30T10:17:57.451Z,6.90
2019-03-30T10:18:57.458Z,8.30
2019-03-30T10:20:04.098Z,5.70
2019-03-30T10:20:58.410Z,7.80
2019-03-30T10:21:57.403Z,8.20
2019-03-30T10:22:57.392Z,5.30
2019-03-30T10:23:57.424Z,5.70
2019-03-30T10:24:58.514Z,4.60
2019-03-30T10:25:57.360Z,8.10
2019-03-30T10:26:57.347Z,7.20
2019-03-30T10:27:57.347Z,6.70
2019-03-30T10:28:57.338Z,7.50
2019-03-30T10:29:57.321Z,7.30
2019-03-30T10:30:57.305Z,6.50
2019-03-30T10:31:59.908Z,7.10
2019-03-30T10:32:57.282Z,6.90
2019-03-30T10:33:57.310Z,7.90
2019-03-30T10:34:57.259Z,6.80
2019-03-30T10:35:57.255Z,10.00
2019-03-30T10:36:57.312Z,7.30
2019-03-30T10:37:58.237Z,5.70
2019-03-30T10:38:57.218Z,7.60
2019-03-30T10:39:57.263Z,8.00
2019-03-30T10:40:57.198Z,6.00
2019-03-30T10:41:57.190Z,5.50
2019-03-30T10:42:57.204Z,5.90
2019-03-30T10:43:57.169Z,7.20
2019-03-30T10:44:57.210Z,6.00
2019-03-30T10:45:57.172Z,5.90
2019-03-30T10:46:57.135Z,6.50
2019-03-30T10:47:57.138Z,7.40
2019-03-30T10:48:57.124Z,6.90
2019-03-30T10:49:57.125Z,5.10
2019-03-30T10:50:57.093Z,6.50
2019-03-30T10:51:57.095Z,6.90
2019-03-30T10:52:57.069Z,6.50
2019-03-30T10:53:57.067Z,6.00
2019-03-30T10:54:57.108Z,6.70
2019-03-30T10:55:57.041Z,6.90
2019-03-30T10:56:57.027Z,7.30
2019-03-30T10:57:58.619Z,7.00
2019-03-30T10:58:57.004Z,7.60
2019-03-30T10:59:57.015Z,7.50
2019-03-30T11:00:56.989Z,7.80
2019-03-30T11:01:57.003Z,7.00
2019-03-30T11:02:56.961Z,6.60
2019-03-30T11:03:56.960Z,4.50
2019-03-30T11:04:56.963Z,10.00
2019-03-30T11:05:56.934Z,5.40
2019-03-30T11:06:56.920Z,6.20
2019-03-30T11:07:56.931Z,5.60
2019-03-30T11:08:56.906Z,3.70
2019-03-30T11:09:56.917Z,10.10
2019-03-30T11:10:56.879Z,5.10
2019-03-30T11:11:56.884Z,5.30
2019-03-30T11:12:56.855Z,5.60
2019-03-30T11:13:56.926Z,6.70
2019-03-30T11:14:56.858Z,7.30
2019-03-30T11:15:56.844Z,9.40
2019-03-30T11:16:56.821Z,6.30
2019-03-30T11:17:56.810Z,7.50
2019-03-30T11:18:56.802Z,5.20
2019-03-30T11:19:56.804Z,5.90
2019-03-30T11:20:56.769Z,6.40
2019-03-30T11:21:56.767Z,5.30
2019-03-30T11:22:56.766Z,7.00
2019-03-30T11:23:56.760Z,5.80
2019-03-30T11:25:07.484Z,6.00
2019-03-30T11:25:57.718Z,5.90
2019-03-30T11:26:56.711Z,4.90
2019-03-30T11:27:56.694Z,5.70
2019-03-30T11:28:56.687Z,8.00
2019-03-30T11:29:56.763Z,5.40
2019-03-30T11:30:56.666Z,4.20
2019-03-30T11:31:56.657Z,5.00
2019-03-30T11:32:56.647Z,6.50
2019-03-30T11:33:56.629Z,6.00
2019-03-30T11:34:56.638Z,4.70
2019-03-30T11:35:56.619Z,4.30
2019-03-30T11:36:56.607Z,4.60
2019-03-30T11:37:56.584Z,4.40
2019-03-30T11:38:56.581Z,5.70
2019-03-30T11:39:56.585Z,5.40
2019-03-30T11:40:56.557Z,7.20
2019-03-30T11:41:56.554Z,5.20
2019-03-30T11:42:56.543Z,4.80
2019-03-30T11:43:56.523Z,5.00
2019-03-30T11:44:56.532Z,5.00
2019-03-30T11:45:56.498Z,3.80
2019-03-30T11:46:56.493Z,7.00
2019-03-30T11:47:56.490Z,4.10
2019-03-30T11:48:56.475Z,3.00
2019-03-30T11:49:56.474Z,6.80
2019-03-30T11:50:56.461Z,5.90
2019-03-30T11:51:56.436Z,5.00
2019-03-30T11:52:56.434Z,4.20
2019-03-30T11:53:56.417Z,3.10
2019-03-30T11:54:56.442Z,5.60
2019-03-30T11:55:56.394Z,5.10
2019-03-30T11:56:56.393Z,5.20
2019-03-30T11:57:56.371Z,5.30
2019-03-30T11:58:56.372Z,2.50
2019-03-30T11:59:56.371Z,4.50
2019-03-30T12:00:56.351Z,3.80
2019-03-30T12:01:56.339Z,4.00
2019-03-30T12:02:56.330Z,4.00
2019-03-30T12:03:56.310Z,6.50
2019-03-30T12:04:56.340Z,6.10
2019-03-30T12:05:56.290Z,6.80
2019-03-30T12:06:56.281Z,3.80
2019-03-30T12:07:56.267Z,2.00
2019-03-30T12:08:56.261Z,3.50
2019-03-30T12:09:56.258Z,3.10
2019-03-30T12:10:56.249Z,3.60
2019-03-30T12:11:56.230Z,4.90
2019-03-30T12:12:56.221Z,5.20
2019-03-30T12:13:56.217Z,3.60
2019-03-30T12:14:56.217Z,4.30
2019-03-30T12:15:56.182Z,4.30
2019-03-30T12:16:56.194Z,4.00
2019-03-30T12:17:56.164Z,4.70
2019-03-30T12:18:56.157Z,4.60
2019-03-30T12:19:56.157Z,7.20
2019-03-30T12:20:56.134Z,3.90
2019-03-30T12:21:56.117Z,6.40
2019-03-30T12:22:56.114Z,3.30
2019-03-30T12:23:56.121Z,3.90
2019-03-30T12:24:56.119Z,8.00
2019-03-30T12:25:56.079Z,1.70
2019-03-30T12:26:56.069Z,3.40
2019-03-30T12:27:56.051Z,4.20
2019-03-30T12:28:56.047Z,3.70
2019-03-30T12:29:56.058Z,3.70
2019-03-30T12:30:56.039Z,4.90
2019-03-30T12:31:56.030Z,1.90
2019-03-30T12:32:56.003Z,3.30
2019-03-30T12:33:55.994Z,7.50
2019-03-30T12:34:56.934Z,4.60
2019-03-30T12:35:55.970Z,3.10
2019-03-30T12:36:56.109Z,3.80
2019-03-30T12:37:55.962Z,5.60
2019-03-30T12:38:55.953Z,2.60
2019-03-30T12:39:58.249Z,4.40
2019-03-30T12:40:55.923Z,2.60
2019-03-30T12:41:55.906Z,3.10
2019-03-30T12:42:55.912Z,3.50
2019-03-30T12:43:55.883Z,3.90
2019-03-30T12:44:55.933Z,3.50
2019-03-30T12:45:55.862Z,2.50
2019-03-30T12:46:55.856Z,2.70
2019-03-30T12:47:55.857Z,2.60
2019-03-30T12:48:55.836Z,3.20
2019-03-30T12:49:55.839Z,2.50
2019-03-30T12:50:55.817Z,2.00
2019-03-30T12:51:55.798Z,4.40
2019-03-30T12:52:55.799Z,2.50
2019-03-30T12:53:55.790Z,4.40
2019-03-30T12:54:55.789Z,5.40
2019-03-30T12:55:55.754Z,4.90
2019-03-30T12:56:55.750Z,3.30
2019-03-30T12:57:55.733Z,4.80
2019-03-30T12:58:55.734Z,6.90
2019-03-30T12:59:59.064Z,5.40
2019-03-30T13:00:55.720Z,6.30
2019-03-30T13:01:55.698Z,2.80
2019-03-30T13:02:55.687Z,3.70
2019-03-30T13:03:55.677Z,4.10
2019-03-30T13:04:55.682Z,2.60